createdAt,value
2022-11-25T00:00:09.212Z,98932.66
2022-11-25T00:05:16.263Z,98919.84
2022-11-25T00:10:19.001Z,98925.59
2022-11-25T00:15:21.902Z,98926.81
2022-11-25T00:20:25.958Z,98923.91
2022-11-25T00:25:28.640Z,98919.59
2022-11-25T00:30:31.335Z,98913.63
2022-11-25T00:35:37.146Z,98911.53
2022-11-25T00:40:39.808Z,98900.22
2022-11-25T00:45:42.524Z,98892.41
2022-11-25T00:50:47.273Z,98887.25
2022-11-25T00:56:07.459Z,98897.72
2022-11-25T01:01:10.674Z,98891.09
2022-11-25T01:06:14.833Z,98890.06
2022-11-25T01:11:19.845Z,98887.16
2022-11-25T01:16:23.138Z,98880.31
2022-11-25T01:21:28.830Z,98896.56
2022-11-25T01:26:32.116Z,98897.81
2022-11-25T01:31:37.587Z,98908.03
2022-11-25T01:36:41.957Z,98890.56
2022-11-25T01:41:44.780Z,98878.41
2022-11-25T01:46:59.982Z,98895.88
2022-11-25T01:52:09.540Z,98891.75
2022-11-25T01:57:15.308Z,98895.66
2022-11-25T02:02:18.315Z,98893.16
2022-11-25T02:07:27.606Z,98888.22
2022-11-25T02:12:31.225Z,98897.25
2022-11-25T02:17:34.281Z,98884.09
2022-11-25T02:22:48.498Z,98887.97
2022-11-25T02:27:56.777Z,98882.00
2022-11-25T02:33:00.298Z,98879.72
2022-11-25T02:38:07.504Z,98873.56
2022-11-25T02:43:11.651Z,98876.41
2022-11-25T02:48:15.747Z,98870.63
2022-11-25T02:53:18.603Z,98867.97
2022-11-25T02:58:23.094Z,98860.78
2022-11-25T03:03:25.815Z,98860.72
2022-11-25T03:08:28.566Z,98863.38
2022-11-25T03:13:32.824Z,98856.22
2022-11-25T03:18:36.134Z,98864.00
2022-11-25T03:23:38.882Z,98862.34
2022-11-25T03:28:42.879Z,98864.19
2022-11-25T03:33:45.691Z,98875.25
2022-11-25T03:38:48.391Z,98879.97
2022-11-25T03:43:52.433Z,98887.78
2022-11-25T03:48:55.235Z,98878.50
2022-11-25T03:53:58.832Z,98879.53
2022-11-25T03:59:03.018Z,98888.38
2022-11-25T04:04:06.479Z,98884.88
2022-11-25T04:09:11.873Z,98885.47
2022-11-25T04:14:16.465Z,98883.81
2022-11-25T04:19:19.254Z,98889.97
2022-11-25T04:24:22.714Z,98901.88
2022-11-25T04:29:27.093Z,98894.69
2022-11-25T04:34:31.125Z,98903.72
2022-11-25T04:39:35.222Z,98899.38
2022-11-25T04:45:07.311Z,98901.41
2022-11-25T04:50:13.863Z,98904.31
2022-11-25T04:55:26.385Z,98915.16
2022-11-25T05:00:30.878Z,98922.78
2022-11-25T05:05:34.006Z,98923.16
2022-11-25T05:10:36.854Z,98935.88
2022-11-25T05:15:40.944Z,98929.28
2022-11-25T05:20:44.904Z,98927.66
2022-11-25T05:25:49.481Z,98929.69
2022-11-25T05:31:22.651Z,98936.88
2022-11-25T05:36:26.184Z,98949.38
2022-11-25T05:41:28.990Z,98944.41
2022-11-25T05:46:33.392Z,98955.31
2022-11-25T05:51:36.506Z,98959.78
2022-11-25T05:56:40.960Z,98959.19
2022-11-25T06:02:11.010Z,98965.91
2022-11-25T06:07:13.805Z,98967.13
2022-11-25T06:12:17.318Z,98973.28
2022-11-25T06:17:25.967Z,98980.84
2022-11-25T06:22:38.786Z,98993.16
2022-11-25T06:28:10.675Z,98996.84
2022-11-25T06:33:06.036Z,98996.38
2022-11-25T06:38:09.534Z,99006.44
2022-11-25T06:43:12.239Z,99017.50
2022-11-25T06:48:16.314Z,99021.00
2022-11-25T06:53:23.989Z,99040.22
2022-11-25T06:58:35.802Z,99038.59
2022-11-25T07:03:41.842Z,99035.06
2022-11-25T07:08:45.003Z,99036.28
2022-11-25T07:13:48.596Z,99038.13
2022-11-25T07:18:52.630Z,99039.78
2022-11-25T07:23:55.269Z,99053.47
2022-11-25T07:29:01.049Z,99061.47
2022-11-25T07:34:06.737Z,99063.97
2022-11-25T07:39:12.794Z,99075.69
2022-11-25T07:44:15.663Z,99086.53
2022-11-25T07:49:28.101Z,99099.03
2022-11-25T07:54:30.958Z,99102.34
2022-11-25T07:59:33.889Z,99107.03
2022-11-25T08:04:38.841Z,99113.38
2022-11-25T08:09:41.490Z,99123.88
2022-11-25T08:14:44.113Z,99124.69
2022-11-25T08:19:48.177Z,99135.38
2022-11-25T08:24:50.823Z,99137.38
2022-11-25T08:29:53.472Z,99147.34
2022-11-25T08:34:57.825Z,99149.81
2022-11-25T08:40:01.130Z,99164.00
2022-11-25T08:45:05.392Z,99162.59
2022-11-25T08:50:11.147Z,99172.63
2022-11-25T08:55:14.228Z,99186.16
2022-11-25T09:00:17.741Z,99183.28
2022-11-25T09:05:21.850Z,99183.94
2022-11-25T09:10:24.464Z,99188.91
2022-11-25T09:15:27.277Z,99191.47
2022-11-25T09:20:31.995Z,99194.63
2022-11-25T09:25:35.176Z,99207.00
2022-11-25T09:30:38.439Z,99207.88
2022-11-25T09:35:42.836Z,99216.22
2022-11-25T09:40:52.413Z,99233.09
2022-11-25T09:46:19.409Z,99232.25
2022-11-25T09:51:25.837Z,99244.38
2022-11-25T09:56:33.305Z,99243.94
2022-11-25T10:01:46.415Z,99245.97
2022-11-25T10:06:55.508Z,99249.84
2022-11-25T10:12:01.160Z,99255.28
2022-11-25T10:17:11.067Z,99254.25
2022-11-25T10:22:22.778Z,99257.94
2022-11-25T10:27:27.911Z,99269.28
2022-11-25T10:32:35.687Z,99276.53
2022-11-25T10:37:41.828Z,99283.81
2022-11-25T10:42:44.765Z,99281.13
2022-11-25T10:48:05.379Z,99287.50
2022-11-25T10:53:14.668Z,99293.88
2022-11-25T10:58:27.718Z,99289.50
2022-11-25T11:03:30.450Z,99294.19
2022-11-25T11:08:40.090Z,99307.09
2022-11-25T11:13:43.268Z,99310.59
2022-11-25T11:18:46.007Z,99314.47
2022-11-25T11:23:51.889Z,99325.34
2022-11-25T11:29:08.496Z,99322.97
2022-11-25T11:34:28.084Z,99324.44
2022-11-25T11:39:51.840Z,99326.91
2022-11-25T11:45:03.322Z,99335.13
2022-11-25T11:50:21.730Z,99335.75
2022-11-25T11:55:37.706Z,99333.91
2022-11-25T12:00:48.043Z,99340.25
2022-11-25T12:05:54.053Z,99339.34
2022-11-25T12:11:01.394Z,99339.53
2022-11-25T12:16:10.277Z,99349.94
2022-11-25T12:21:25.021Z,99354.06
2022-11-25T12:26:32.213Z,99362.72
2022-11-25T12:31:39.265Z,99370.75
2022-11-25T12:36:44.797Z,99373.41
2022-11-25T12:41:52.764Z,99383.72
2022-11-25T12:46:56.844Z,99397.09
2022-11-25T12:52:13.339Z,99399.97
2022-11-25T12:57:57.391Z,99406.50
2022-11-25T13:03:14.444Z,99413.66
2022-11-25T13:08:28.917Z,99418.19
2022-11-25T13:13:47.350Z,99420.41
2022-11-25T13:18:50.888Z,99421.88
2022-11-25T13:23:56.386Z,99435.03
2022-11-25T13:29:02.686Z,99438.56
2022-11-25T13:34:17.534Z,99440.38
2022-11-25T13:39:30.710Z,99453.56
2022-11-25T13:44:36.964Z,99453.28
2022-11-25T13:49:51.309Z,99468.56
2022-11-25T13:54:55.273Z,99472.56
2022-11-25T14:00:01.625Z,99477.91
2022-11-25T14:05:53.948Z,99489.94
2022-11-25T14:11:04.590Z,99488.31
2022-11-25T14:16:25.948Z,99493.00
2022-11-25T14:21:45.039Z,99503.66
2022-11-25T14:26:50.391Z,99497.88
2022-11-25T14:31:57.131Z,99501.91
2022-11-25T14:37:05.122Z,99514.81
2022-11-25T14:42:09.543Z,99508.81
2022-11-25T14:47:13.573Z,99520.88
2022-11-25T14:52:21.370Z,99527.84
2022-11-25T14:57:25.965Z,99539.91
2022-11-25T15:02:31.984Z,99544.25
2022-11-25T15:07:35.476Z,99550.94
2022-11-25T15:12:43.360Z,99554.28
2022-11-25T15:17:49.763Z,99562.44
2022-11-25T15:22:53.713Z,99566.50
2022-11-25T15:27:56.565Z,99567.31
2022-11-25T15:33:03.461Z,99574.31
2022-11-25T15:38:18.629Z,99589.88
2022-11-25T15:43:24.022Z,99593.38
2022-11-25T15:48:29.881Z,99597.22
2022-11-25T15:53:36.881Z,99609.09
2022-11-25T15:58:42.745Z,99616.47
2022-11-25T16:03:47.503Z,99644.47
2022-11-25T16:08:54.471Z,99643.16
2022-11-25T16:14:18.163Z,99650.53
2022-11-25T16:19:24.849Z,99664.53
2022-11-25T16:24:48.985Z,99665.72
2022-11-25T16:29:55.917Z,99680.88
2022-11-25T16:35:07.322Z,99683.03
2022-11-25T16:40:13.059Z,99693.00
2022-11-25T16:45:19.595Z,99695.56
2022-11-25T16:50:23.936Z,99701.06
2022-11-25T16:55:26.702Z,99705.56
2022-11-25T17:00:30.005Z,99719.22
2022-11-25T17:05:34.584Z,99729.25
2022-11-25T17:10:37.278Z,99725.09
2022-11-25T17:15:39.934Z,99745.63
2022-11-25T17:20:44.305Z,99752.81
2022-11-25T17:26:56.874Z,99757.66
2022-11-25T17:31:59.752Z,99763.00
2022-11-25T17:37:05.321Z,99772.00
2022-11-25T17:42:07.951Z,99780.00
2022-11-25T17:47:13.896Z,99795.88
2022-11-25T17:52:17.927Z,99806.03
2022-11-25T17:57:22.069Z,99820.06
2022-11-25T18:02:24.834Z,99834.44
2022-11-25T18:07:28.872Z,99838.94
2022-11-25T18:12:33.991Z,99848.94
2022-11-25T18:17:37.888Z,99852.78
2022-11-25T18:22:45.391Z,99860.63
2022-11-25T18:27:48.489Z,99869.78
2022-11-25T18:32:51.561Z,99876.16
2022-11-25T18:37:56.667Z,99884.97
2022-11-25T18:43:01.546Z,99885.81
2022-11-25T18:48:12.809Z,99892.50
2022-11-25T18:53:16.849Z,99900.19
2022-11-25T18:58:21.396Z,99906.69
2022-11-25T19:03:26.397Z,99920.19
2022-11-25T19:08:30.548Z,99934.06
2022-11-25T19:13:34.913Z,99940.91
2022-11-25T19:18:37.659Z,99927.72
2022-11-25T19:23:41.983Z,99942.56
2022-11-25T19:28:46.470Z,99956.91
2022-11-25T19:33:50.967Z,99959.75
2022-11-25T19:38:55.234Z,99963.25
2022-11-25T19:43:57.968Z,99970.25
2022-11-25T19:49:02.871Z,99974.09
2022-11-25T19:54:07.519Z,99989.25
2022-11-25T19:59:10.571Z,99986.91
2022-11-25T20:04:17.812Z,100000.28
2022-11-25T20:09:21.817Z,100015.63
2022-11-25T20:14:24.486Z,100014.63
2022-11-25T20:19:27.128Z,100021.97
2022-11-25T20:24:31.183Z,100031.81
2022-11-25T20:29:33.827Z,100036.66
2022-11-25T20:34:41.852Z,100043.97
2022-11-25T20:39:46.596Z,100062.81
2022-11-25T20:44:53.315Z,100064.16
2022-11-25T20:49:59.813Z,100069.63
2022-11-25T20:55:17.889Z,100086.47
2022-11-25T21:00:22.314Z,100089.13
2022-11-25T21:05:25.054Z,100092.63
2022-11-25T21:10:31.019Z,100093.66
2022-11-25T21:15:33.744Z,100093.78
2022-11-25T21:20:36.665Z,100115.16
2022-11-25T21:25:40.666Z,100116.00
2022-11-25T21:30:43.364Z,100126.16
2022-11-25T21:35:50.345Z,100129.00
2022-11-25T21:40:55.641Z,100133.47
2022-11-25T21:46:00.870Z,100149.66
2022-11-25T21:51:03.664Z,100147.00
2022-11-25T21:56:17.246Z,100152.31
2022-11-25T22:01:20.290Z,100152.81
2022-11-25T22:06:24.406Z,100165.66
2022-11-25T22:11:31.628Z,100170.81
2022-11-25T22:16:36.185Z,100174.50
2022-11-25T22:21:38.865Z,100180.84
2022-11-25T22:26:43.935Z,100187.16
2022-11-25T22:31:46.865Z,100184.81
2022-11-25T22:36:50.756Z,100193.66
2022-11-25T22:41:56.971Z,100196.63
2022-11-25T22:47:00.082Z,100204.50
2022-11-25T22:52:02.743Z,100223.31
2022-11-25T22:57:06.771Z,100234.69
2022-11-25T23:02:13.154Z,100231.31
2022-11-25T23:07:15.980Z,100241.31
2022-11-25T23:12:20.591Z,100242.78
2022-11-25T23:17:24.743Z,100253.31
2022-11-25T23:22:27.379Z,100265.97
2022-11-25T23:27:31.374Z,100254.78
2022-11-25T23:32:34.024Z,100264.88
2022-11-25T23:37:36.659Z,100271.06
2022-11-25T23:42:40.648Z,100273.91
2022-11-25T23:47:44.418Z,100271.22
2022-11-25T23:52:47.094Z,100279.56
2022-11-25T23:57:51.242Z,100286.56
